Главная страница
METAR-TAF:

METAR-TAF

Аэропорты :

Рёрус, Норвегия

широта: 62-35N, долгота: 011-21E, высота над уровнем моря: 626 м

Текущие метеонаблюдения

Эта сводка был подготовлена 44 минут назад, в 15:50 UTC
Ветер 1 Узел переменных направлений
Температура -10°C
Влажность 92%
Давление 1022 hPa
Видимость: 0350 м

METAR: ENRO 151550Z AUTO VRB01KT 0350NDV R13/P2000D R31/1100D BKN001/// OVC003/// M10/M11 Q1022

Время: 17:34 (16:34 UTC)

Прогноз

Эта сводка был подготовлена 1 час и 20 минут назад, в 15:14 UTC
Прогноз действительный с 15-го 15 UTC до 15-го 20 UTC
Ветер 3 Узел переменных направлений
Видимость: 0300 м
на высоте 200 фута
переохлажденный туман
Вероятность 30%
С 15-го 15 UTC до 15-го 20 UTC
Видимость: 6000 м
Отдельные облака на высоте 200 фута
Рассеянная облачность на высоте 600 фута

TAF: ENRO 151514Z 1515/1520 VRB03KT 0300 FZFG VV002 PROB30 1515/1520 6000 NSW SCT002 BKN006

Метеонаблюдения и прогнозы для более 4000 аэропортов (сводки METAR и TAF).

Имеющиеся станции представлены на карте желтыми и красными точками.

Чтобы увидеть название станции, наведите на нее мышь.

Затем щелкните, чтобы увидеть метеонаблюдения и метеопрогнозы.

Управление картой: чтобы увеличить масштаб, щелкните зеленые кнопки с черным крестиком; чтобы уменьшить масштаб, щелкните зеленую кнопку с тире; для просмотра соседних карт щелкайте зеленые стрелки.


METAR-TAF: